Time;durP1;ratioP1;P1;durP2;ratioP2;P2;SDS_P1;SDS_P2;PMS_P1;PMS_P2;Temp;Humidity;BMP_temperature;BMP_pressure;BME280_temperature;BME280_humidity;BME280_pressure;Samples;Min_cycle;Max_cycle;Signal;HPM_P1;HPM_P2
2023/02/10 00:00:20;;;;;;;;;119.00;87.67;;;;;-6.11;93.92;101689.16;6312032;20;3695173;-56
2023/02/10 00:02:49;;;;;;;;;105.33;76.00;;;;;-6.47;94.46;101683.44;6278668;20;3670164;-53
2023/02/10 00:05:19;;;;;;;;;118.67;90.00;;;;;-6.52;95.49;101680.63;6313992;20;3711768;-54
2023/02/10 00:07:49;;;;;;;;;111.67;77.67;;;;;-6.73;95.38;101682.38;6280205;20;3680543;-57
2023/02/10 00:10:18;;;;;;;;;109.00;87.00;;;;;-6.36;95.07;101689.97;6312843;20;3671097;-57
2023/02/10 00:12:48;;;;;;;;;108.33;77.67;;;;;-6.28;94.06;101690.25;6312644;20;3677432;-57
2023/02/10 00:15:18;;;;;;;;;122.00;95.67;;;;;-6.74;93.99;101693.63;6310445;20;3717981;-53
2023/02/10 00:17:47;;;;;;;;;158.50;135.50;;;;;-6.88;93.95;101696.56;6277171;20;4500216;-55
2023/02/10 00:20:18;;;;;;;;;97.33;67.33;;;;;-6.72;93.57;101698.09;6310008;20;3675347;-59
2023/02/10 00:22:47;;;;;;;;;105.00;76.00;;;;;-6.97;93.67;101696.22;6311047;20;3679449;-57
2023/02/10 00:25:17;;;;;;;;;108.00;76.00;;;;;-6.97;93.84;101700.53;6314572;20;3684655;-56
2023/02/10 00:27:46;;;;;;;;;129.33;110.67;;;;;-7.07;94.38;101694.91;6311517;20;4491896;-55
2023/02/10 00:30:16;;;;;;;;;94.50;65.67;;;;;-7.07;94.77;101697.53;6306779;20;3658582;-56
2023/02/10 00:32:46;;;;;;;;;87.67;61.00;;;;;-7.03;94.00;101701.16;6313398;20;3661765;-58
2023/02/10 00:35:16;;;;;;;;;84.00;61.50;;;;;-7.03;93.75;101703.75;6308095;20;3660726;-57
2023/02/10 00:37:45;;;;;;;;;85.00;60.67;;;;;-6.89;93.78;101705.25;6313860;20;3657581;-56
2023/02/10 00:40:16;;;;;;;;;96.67;68.33;;;;;-7.08;93.63;101695.75;6310118;20;3656560;-58
2023/02/10 00:42:46;;;;;;;;;89.17;64.33;;;;;-6.94;93.67;101700.66;6311179;20;3666389;-58
2023/02/10 00:45:15;;;;;;;;;134.67;108.33;;;;;-6.94;93.84;101698.94;6311495;20;3720056;-56
2023/02/10 00:47:46;;;;;;;;;119.67;107.00;;;;;-6.97;93.99;101696.22;6276160;20;3704506;-57
2023/02/10 00:50:16;;;;;;;;;86.83;59.67;;;;;-6.90;94.76;101699.94;6310190;20;3663876;-58
2023/02/10 00:52:46;;;;;;;;;135.67;112.33;;;;;-7.00;94.58;101695.16;6313539;20;4492954;-57
2023/02/10 00:55:16;;;;;;;;;130.67;112.17;;;;;-6.96;95.05;101695.38;6313359;20;4480439;-57
2023/02/10 00:57:45;;;;;;;;;107.00;99.33;;;;;-6.95;94.79;101694.56;6316464;20;3695293;-56
2023/02/10 01:00:15;;;;;;;;;131.50;105.67;;;;;-7.01;95.40;101694.28;6313468;20;4491015;-58
2023/02/10 01:02:47;;;;;;;;;115.29;102.00;;;;;-6.73;94.68;101700.66;6336877;20;4462827;-58
2023/02/10 01:05:17;;;;;;;;;85.00;64.00;;;;;-6.78;93.88;101694.34;6318644;20;3647152;-58
2023/02/10 01:07:46;;;;;;;;;120.17;100.33;;;;;-7.26;94.20;101696.69;6314148;20;4487739;-57
2023/02/10 01:10:16;;;;;;;;;121.00;100.00;;;;;-7.09;95.30;101690.47;6314635;20;3703749;-59
2023/02/10 01:12:46;;;;;;;;;112.83;94.17;;;;;-7.00;94.41;101696.09;6314693;20;3695167;-58
2023/02/10 01:15:15;;;;;;;;;110.00;98.67;;;;;-7.06;94.21;101685.38;6311999;20;4461688;-58
2023/02/10 01:17:45;;;;;;;;;124.67;107.67;;;;;-7.30;93.99;101686.09;6314565;20;3713812;-55
2023/02/10 01:20:15;;;;;;;;;113.33;98.33;;;;;-7.46;94.55;101677.56;6279815;20;3690967;-57
2023/02/10 01:22:45;;;;;;;;;115.67;96.33;;;;;-7.31;95.00;101676.50;6313214;20;3698422;-55
2023/02/10 01:25:14;;;;;;;;;113.00;103.17;;;;;-7.39;95.16;101672.69;6313880;20;4471106;-56
2023/02/10 01:27:43;;;;;;;;;79.00;60.20;;;;;-7.35;95.22;101677.19;6315816;20;3639875;-57
2023/02/10 01:30:13;;;;;;;;;116.00;104.33;;;;;-7.70;94.38;101675.66;6283892;20;3696140;-57
2023/02/10 01:32:42;;;;;;;;;119.00;102.50;;;;;-7.70;94.21;101670.44;6313604;20;3650391;-56
2023/02/10 01:35:11;;;;;;;;;125.00;104.67;;;;;-7.87;94.01;101674.91;6281592;20;4491937;-57
2023/02/10 01:37:41;;;;;;;;;126.50;109.83;;;;;-8.18;94.17;101673.50;6313105;20;4493013;-57
2023/02/10 01:40:11;;;;;;;;;147.33;127.67;;;;;-7.95;94.60;101673.69;6315642;20;3738822;-56
2023/02/10 01:42:42;;;;;;;;;136.67;114.50;;;;;-7.59;93.59;101681.34;6280862;20;4481578;-57
2023/02/10 01:45:20;;;;;;;;;136.67;114.00;;;;;-7.79;92.97;101673.53;6312786;20;4477374;-56
2023/02/10 01:47:54;;;;;;;;;129.83;111.33;;;;;-7.52;93.83;101672.97;6315743;20;4482577;-57
2023/02/10 01:50:37;;;;;;;;;117.67;100.67;;;;;-7.31;93.20;101681.72;6306289;20;4474305;-57
2023/02/10 01:53:08;;;;;;;;;116.67;95.33;;;;;-7.36;93.60;101675.41;6311498;20;3697320;-57
2023/02/10 01:55:45;;;;;;;;;74.20;57.20;;;;;-7.24;93.90;101671.53;6311870;20;3612771;-57
2023/02/10 01:58:20;;;;;;;;;101.60;86.20;;;;;-7.40;94.39;101663.03;6278713;20;3694037;-56
2023/02/10 02:00:49;;;;;;;;;108.33;88.83;;;;;-7.17;94.75;101671.88;6279255;20;3694071;-55
2023/02/10 02:03:18;;;;;;;;;98.40;84.20;;;;;-7.11;95.01;101676.44;6311905;20;3684637;-57
2023/02/10 02:05:48;;;;;;;;;108.50;92.50;;;;;-7.02;94.47;101671.63;6281974;20;3696085;-56
2023/02/10 02:08:28;;;;;;;;;107.00;92.33;;;;;-7.19;95.03;101670.91;6315848;20;3692000;-57
2023/02/10 02:11:27;;;;;;;;;98.67;86.00;;;;;-7.08;95.18;101669.66;6311742;20;3665911;-52
2023/02/10 02:14:39;;;;;;;;;77.80;58.60;;;;;-6.99;94.79;101665.63;6313910;20;3647144;-57
2023/02/10 02:17:55;;;;;;;;;97.40;84.40;;;;;-7.23;94.62;101668.13;6277994;20;3667066;-57
2023/02/10 02:21:49;;;;;;;;;105.00;87.17;;;;;-7.20;93.30;101673.47;6281650;20;3687885;-52
2023/02/10 02:25:02;;;;;;;;;107.00;100.67;;;;;-7.68;93.20;101668.81;6316306;20;3681502;-58
2023/02/10 02:28:23;;;;;;;;;83.80;60.20;;;;;-7.62;93.21;101665.56;6311176;20;3664925;-56
2023/02/10 02:31:35;;;;;;;;;133.67;107.33;;;;;-7.96;93.25;101658.84;6278817;20;3726335;-56
2023/02/10 02:34:50;;;;;;;;;111.40;98.00;;;;;-8.07;93.56;101660.09;6279496;20;3673256;-57
2023/02/10 02:37:41;;;;;;;;;140.17;121.00;;;;;-8.12;93.25;101649.44;6273557;20;4498259;-56
2023/02/10 02:40:15;;;;;;;;;133.17;117.50;;;;;-8.14;92.88;101663.22;6303102;20;4483709;-56
2023/02/10 02:42:45;;;;;;;;;142.67;118.17;;;;;-7.82;92.25;101649.94;6309656;20;4498593;-55
2023/02/10 02:45:46;;;;;;;;;144.50;125.50;;;;;-7.79;91.46;101657.00;6310074;20;3621245;-55
2023/02/10 02:49:15;;;;;;;;;82.20;58.80;;;;;-7.86;91.22;101655.84;6283577;20;3647147;-56
2023/02/10 02:52:17;;;;;;;;;149.67;128.67;;;;;-7.92;92.26;101650.34;6281820;20;3741932;-53
2023/02/10 02:55:41;;;;;;;;;138.33;108.67;;;;;-7.76;91.95;101650.22;6277398;20;4478355;-51
2023/02/10 02:58:45;;;;;;;;;117.60;110.00;;;;;-8.05;93.29;101646.31;6308341;20;3685661;-56
2023/02/10 03:01:56;;;;;;;;;134.83;115.33;;;;;-8.00;93.71;101651.72;6274437;20;4508621;-53
2023/02/10 03:04:33;;;;;;;;;124.33;104.17;;;;;-7.92;94.30;101655.56;6308574;20;4483596;-57
2023/02/10 03:07:04;;;;;;;;;120.67;105.17;;;;;-7.81;93.69;101649.13;6309552;20;3697235;-52
2023/02/10 03:09:34;;;;;;;;;71.80;55.60;;;;;-8.07;94.14;101645.34;6314730;20;3608675;-55
2023/02/10 03:12:03;;;;;;;;;77.40;60.40;;;;;-8.16;95.13;101644.94;6280002;20;3625330;-56
2023/02/10 03:14:32;;;;;;;;;85.80;64.80;;;;;-7.95;94.67;101645.91;6281163;20;3633614;-56
2023/02/10 03:17:02;;;;;;;;;119.33;93.50;;;;;-7.80;94.70;101640.44;6277382;20;4446123;-56
2023/02/10 03:19:31;;;;;;;;;137.00;118.00;;;;;-7.78;93.58;101643.13;6314439;20;3728414;-56
2023/02/10 03:22:01;;;;;;;;;95.67;67.33;;;;;-7.95;93.76;101645.00;6276926;20;3676468;-55
2023/02/10 03:24:31;;;;;;;;;97.33;65.33;;;;;-7.85;92.77;101649.78;6315074;20;3666915;-55
2023/02/10 03:27:00;;;;;;;;;80.20;65.20;;;;;-7.88;93.16;101657.47;6315517;20;3626287;-56
2023/02/10 03:29:29;;;;;;;;;137.83;124.50;;;;;-8.00;93.17;101659.56;6278243;20;4494065;-56
2023/02/10 03:32:01;;;;;;;;;79.60;62.20;;;;;-8.36;93.56;101664.84;6312518;20;3638926;-55
2023/02/10 03:34:31;;;;;;;;;99.83;71.33;;;;;-8.47;94.02;101663.50;6281575;20;3674359;-55
2023/02/10 03:37:01;;;;;;;;;143.67;124.67;;;;;-8.39;94.01;101659.53;6310310;20;3737837;-57
2023/02/10 03:39:31;;;;;;;;;141.50;123.17;;;;;-8.49;94.24;101646.88;6279530;20;4488760;-53
2023/02/10 03:42:00;;;;;;;;;141.67;122.17;;;;;-8.39;94.19;101649.09;6310075;20;4495012;-57
2023/02/10 03:44:30;;;;;;;;;125.17;105.83;;;;;-8.25;94.32;101655.81;6308786;20;4463819;-57
2023/02/10 03:47:00;;;;;;;;;140.00;125.00;;;;;-8.70;94.50;101659.78;6309878;20;4476328;-55
2023/02/10 03:49:30;;;;;;;;;135.67;116.33;;;;;-8.51;94.59;101656.34;6313758;20;3721103;-57
2023/02/10 03:51:59;;;;;;;;;95.17;70.67;;;;;-8.46;94.62;101654.84;6277105;20;3680490;-57
2023/02/10 03:54:31;;;;;;;;;157.33;136.67;;;;;-8.48;94.86;101651.25;6309706;20;4497234;-56
2023/02/10 03:57:01;;;;;;;;;150.17;122.67;;;;;-8.35;95.07;101653.59;6306326;20;4509700;-57
2023/02/10 03:59:30;;;;;;;;;95.33;67.00;;;;;-8.41;95.06;101646.41;6308680;20;3681503;-57
2023/02/10 04:01:59;;;;;;;;;76.00;55.60;;;;;-8.43;95.61;101641.97;6311724;20;3629465;-54
2023/02/10 04:04:28;;;;;;;;;88.80;61.20;;;;;-8.18;95.98;101644.84;6280459;20;3667997;-56
2023/02/10 04:06:57;;;;;;;;;69.67;48.00;;;;;-8.17;96.12;101638.81;6280324;20;3611717;-57
2023/02/10 04:09:27;;;;;;;;;113.00;98.83;;;;;-8.21;95.94;101634.28;6277282;20;3699332;-57
2023/02/10 04:11:57;;;;;;;;;124.83;107.83;;;;;-8.08;95.63;101634.81;6308965;20;4483672;-57
2023/02/10 04:14:27;;;;;;;;;124.33;101.50;;;;;-8.03;95.14;101631.63;6310633;20;4476301;-57
2023/02/10 04:16:56;;;;;;;;;125.17;101.50;;;;;-8.23;95.12;101633.31;6309634;20;4494087;-56
2023/02/10 04:19:26;;;;;;;;;113.00;94.67;;;;;-8.05;95.75;101627.19;6310546;20;3700390;-56
2023/02/10 04:21:54;;;;;;;;;99.50;84.50;;;;;-8.07;95.40;101629.69;6270744;20;2563855;-57
2023/02/10 04:24:23;;;;;;;;;99.80;85.20;;;;;-8.02;95.52;101624.69;6281579;20;3647171;-55
2023/02/10 04:26:51;;;;;;;;;78.50;55.00;;;;;-8.15;95.38;101622.38;6279097;20;2888839;-57
2023/02/10 04:29:22;;;;;;;;;97.00;64.50;;;;;-8.21;95.54;101629.09;6285036;20;4430456;-58
2023/02/10 04:31:52;;;;;;;;;126.33;103.50;;;;;-8.05;96.03;101622.84;6310259;20;4484720;-57
2023/02/10 04:34:22;;;;;;;;;104.17;84.83;;;;;-8.04;95.52;101615.91;6315407;20;3691051;-58
2023/02/10 04:36:51;;;;;;;;;101.33;87.00;;;;;-7.98;95.53;101618.78;6317154;20;2916983;-57
2023/02/10 04:39:21;;;;;;;;;89.00;75.33;;;;;-8.00;95.40;101617.84;6318185;20;2915387;-55
2023/02/10 04:41:50;;;;;;;;;89.40;70.60;;;;;-7.93;95.57;101612.06;6314391;20;3677354;-55
2023/02/10 04:44:18;;;;;;;;;70.00;45.40;;;;;-7.96;95.11;101611.94;6284379;20;3644002;-57
2023/02/10 04:46:49;;;;;;;;;74.60;56.40;;;;;-8.15;95.19;101614.56;6282201;20;3635720;-55
2023/02/10 04:49:18;;;;;;;;;93.60;80.60;;;;;-8.03;94.93;101620.28;6283007;20;3664841;-55
2023/02/10 04:51:46;;;;;;;;;112.00;88.50;;;;;-7.98;94.01;101618.78;6279280;20;2568160;-57
2023/02/10 04:54:16;;;;;;;;;134.33;111.83;;;;;-8.26;93.32;101622.78;6282107;20;4466028;-57
2023/02/10 04:56:46;;;;;;;;;143.67;120.50;;;;;-8.22;93.30;101618.56;6311605;20;4502440;-56
2023/02/10 04:59:16;;;;;;;;;137.17;116.67;;;;;-8.40;92.97;101635.19;6311869;20;4498190;-55
2023/02/10 05:01:46;;;;;;;;;138.33;119.00;;;;;-8.73;92.96;101644.91;6316586;20;3714869;-57
2023/02/10 05:04:15;;;;;;;;;96.50;69.17;;;;;-9.19;92.96;101650.44;6283115;20;3673242;-54
2023/02/10 05:06:45;;;;;;;;;108.00;74.33;;;;;-9.22;92.54;101657.22;6310392;20;3693077;-58
2023/02/10 05:09:15;;;;;;;;;145.33;121.33;;;;;-9.09;92.05;101655.28;6316589;20;3720150;-56
2023/02/10 05:11:45;;;;;;;;;161.67;119.00;;;;;-8.88;90.99;101660.66;6286093;20;3728431;-57
2023/02/10 05:14:14;;;;;;;;;158.50;132.17;;;;;-9.08;91.64;101651.91;6279605;20;4499217;-58
2023/02/10 05:16:44;;;;;;;;;167.33;141.33;;;;;-9.09;92.74;101660.50;6318954;20;3731565;-57
2023/02/10 05:19:13;;;;;;;;;116.67;95.33;;;;;-8.56;93.13;101668.25;6279105;20;3708678;-56
2023/02/10 05:21:42;;;;;;;;;79.00;54.20;;;;;-8.58;94.09;101672.47;6318081;20;3645146;-55
2023/02/10 05:24:11;;;;;;;;;73.40;52.00;;;;;-8.31;93.58;101670.28;6281789;20;3640965;-57
2023/02/10 05:26:39;;;;;;;;;82.50;54.50;;;;;-8.23;93.73;101675.00;6285195;20;2904452;-57
2023/02/10 05:29:07;;;;;;;;;122.50;96.00;;;;;-8.27;93.50;101673.06;6276696;20;2572517;-56
2023/02/10 05:31:35;;;;;;;;;83.20;55.80;;;;;-8.19;94.06;101676.03;6282825;20;3651344;-55
2023/02/10 05:34:05;;;;;;;;;93.50;63.50;;;;;-8.04;93.35;101689.78;6280004;20;3681563;-55
2023/02/10 05:36:35;;;;;;;;;198.17;158.50;;;;;-8.23;93.78;101698.47;6311908;20;4488888;-57
2023/02/10 05:39:23;;;;;;;;;131.17;107.17;;;;;-8.23;93.13;101697.56;6308386;20;4478427;-57
2023/02/10 05:41:58;;;;;;;;;147.83;119.67;;;;;-8.62;93.14;101698.38;6312511;20;4499592;-57
2023/02/10 05:44:31;;;;;;;;;144.67;122.67;;;;;-8.68;92.85;101700.69;6312682;20;4504533;-56
2023/02/10 05:47:01;;;;;;;;;139.00;115.17;;;;;-8.54;93.12;101703.94;6310412;20;3706560;-55
2023/02/10 05:49:31;;;;;;;;;145.00;119.33;;;;;-8.94;93.61;101702.00;6311811;20;3721112;-57
2023/02/10 05:52:01;;;;;;;;;150.17;123.83;;;;;-8.64;93.72;101701.72;6313563;20;4509596;-57
2023/02/10 05:54:31;;;;;;;;;160.17;135.83;;;;;-8.73;93.58;101696.97;6313880;20;4511708;-57
2023/02/10 05:57:00;;;;;;;;;218.50;166.83;;;;;-8.62;93.63;101706.19;6311416;20;3706614;-57
2023/02/10 05:59:30;;;;;;;;;237.33;194.33;;;;;-8.87;92.91;101708.44;6314008;20;3738865;-57
2023/02/10 06:02:00;;;;;;;;;104.33;72.67;;;;;-8.70;92.75;101710.13;6278893;20;3699250;-57
2023/02/10 06:04:29;;;;;;;;;91.60;62.80;;;;;-8.60;92.95;101697.56;6283022;20;3667990;-57
2023/02/10 06:06:59;;;;;;;;;161.67;139.33;;;;;-8.35;92.80;101696.97;6279545;20;4494035;-56
2023/02/10 06:09:29;;;;;;;;;108.00;76.00;;;;;-8.63;93.10;101703.53;6316714;20;3676285;-57
2023/02/10 06:12:00;;;;;;;;;103.00;72.00;;;;;-8.40;93.79;101697.72;6312753;20;3677463;-57
2023/02/10 06:14:30;;;;;;;;;109.00;76.00;;;;;-8.30;93.67;101696.38;6315211;20;3678415;-57
2023/02/10 06:16:59;;;;;;;;;109.33;75.67;;;;;-8.22;93.81;101697.63;6314439;20;3695157;-56
2023/02/10 06:19:29;;;;;;;;;115.50;80.50;;;;;-8.28;93.78;101694.75;6278585;20;4460757;-57
2023/02/10 06:21:59;;;;;;;;;134.67;97.67;;;;;-8.20;94.04;101700.31;6314685;20;3685656;-56
2023/02/10 06:24:29;;;;;;;;;133.67;92.67;;;;;-7.96;93.42;101703.16;6283388;20;3708621;-55
2023/02/10 06:26:58;;;;;;;;;116.67;76.67;;;;;-7.86;93.70;101700.16;6280654;20;3684807;-57
2023/02/10 06:29:28;;;;;;;;;194.67;161.33;;;;;-7.80;92.34;101697.81;6316384;20;3712859;-57
2023/02/10 06:31:58;;;;;;;;;186.00;153.00;;;;;-7.26;91.10;101692.38;6282936;20;3734674;-56
2023/02/10 06:34:27;;;;;;;;;105.00;80.00;;;;;-5.93;87.56;101703.78;6282194;20;2723634;-58
2023/02/10 06:36:56;;;;;;;;;125.33;91.67;;;;;-6.18;83.89;101701.13;6317498;20;3705488;-59
2023/02/10 06:39:26;;;;;;;;;130.67;102.67;;;;;-5.84;83.95;101705.00;6280142;20;3721261;-58
2023/02/10 06:41:57;;;;;;;;;130.00;91.67;;;;;-5.68;83.81;101711.69;6280004;20;3699330;-58
2023/02/10 06:44:27;;;;;;;;;189.67;137.33;;;;;-5.24;82.51;101709.81;6280791;20;3710788;-59
2023/02/10 06:46:57;;;;;;;;;153.67;116.67;;;;;-5.13;81.84;101711.06;6279816;20;4479425;-59
2023/02/10 06:49:27;;;;;;;;;185.67;136.67;;;;;-4.82;79.89;101724.31;6315178;20;3718073;-60
2023/02/10 06:51:57;;;;;;;;;123.33;85.00;;;;;-3.38;76.96;101734.91;6278466;20;3696290;-59
2023/02/10 06:54:27;;;;;;;;;117.67;91.00;;;;;-5.01;74.18;101735.88;6283641;20;3697177;-59
2023/02/10 06:56:57;;;;;;;;;102.67;73.00;;;;;-5.31;76.13;101740.09;6280152;20;3673335;-59
2023/02/10 06:59:26;;;;;;;;;104.33;76.00;;;;;-4.83;76.70;101744.38;6309356;20;3665910;-60
2023/02/10 07:02:00;;;;;;;;;103.33;75.00;;;;;-3.32;72.31;101761.38;6313638;20;3688838;-61
2023/02/10 07:04:31;;;;;;;;;145.67;115.67;;;;;-3.20;70.27;101759.91;6315013;20;3710692;-60
2023/02/10 07:07:01;;;;;;;;;147.00;113.67;;;;;-0.19;63.63;101769.16;6281632;20;3709663;-60
2023/02/10 07:09:31;;;;;;;;;158.33;121.33;;;;;-0.31;61.21;101777.78;6280742;20;3733617;-60
2023/02/10 07:12:01;;;;;;;;;147.00;123.00;;;;;0.42;59.04;101765.69;6284472;20;2776376;-60
2023/02/10 07:14:31;;;;;;;;;159.25;137.25;;;;;0.34;59.79;101759.41;6316100;20;3729497;-58
2023/02/10 07:17:02;;;;;;;;;159.00;127.00;;;;;0.67;58.88;101763.34;6279392;20;4512908;-60
2023/02/10 07:19:34;;;;;;;;;133.75;110.25;;;;;2.76;52.35;101760.63;6280309;20;3716048;-59
2023/02/10 07:22:06;;;;;;;;;124.33;102.00;;;;;1.86;54.48;101763.66;6311141;20;3699294;-59
2023/02/10 07:24:37;;;;;;;;;135.50;111.50;;;;;1.75;55.26;101754.75;6281561;20;4479529;-56
2023/02/10 07:27:07;;;;;;;;;136.75;109.25;;;;;2.29;55.44;101763.97;6281161;20;4493012;-57
2023/02/10 07:29:37;;;;;;;;;116.67;98.33;;;;;2.98;53.10;101755.41;6280872;20;3693008;-57
2023/02/10 07:32:07;;;;;;;;;109.33;93.67;;;;;3.45;52.10;101755.50;6282081;20;3683633;-56
2023/02/10 07:34:36;;;;;;;;;112.33;93.00;;;;;4.00;49.77;101757.25;6280168;20;3709650;-57
2023/02/10 07:37:09;;;;;;;;;158.50;139.50;;;;;5.10;48.02;101757.78;6280091;20;4485749;-57
2023/02/10 07:39:39;;;;;;;;;148.50;126.00;;;;;4.61;49.21;101753.59;6280917;20;4498133;-58
2023/02/10 07:42:10;;;;;;;;;133.75;116.00;;;;;3.27;51.18;101750.19;6284246;20;4507501;-57
2023/02/10 07:44:40;;;;;;;;;244.75;192.50;;;;;3.58;51.42;101743.13;6283834;20;4484688;-58
2023/02/10 07:47:12;;;;;;;;;162.00;130.50;;;;;0.77;60.31;101737.91;6311674;20;4489191;-58
2023/02/10 07:49:43;;;;;;;;;142.25;118.00;;;;;-0.41;69.03;101736.25;6276177;20;4500278;-56
2023/02/10 07:52:12;;;;;;;;;122.00;103.67;;;;;-0.49;70.50;101736.13;6279347;20;3700272;-58
2023/02/10 07:54:42;;;;;;;;;105.67;88.00;;;;;-0.70;71.23;101734.00;6279982;20;3688886;-58
2023/02/10 07:57:12;;;;;;;;;101.33;91.00;;;;;-0.67;72.33;101737.56;6278055;20;3672145;-58
2023/02/10 07:59:41;;;;;;;;;101.00;83.67;;;;;0.22;70.53;101736.31;6313777;20;3679447;-58
2023/02/10 08:02:12;;;;;;;;;101.00;72.67;;;;;0.16;70.63;101738.00;6282408;20;3675241;-57
2023/02/10 08:04:41;;;;;;;;;100.67;72.00;;;;;-0.26;73.22;101739.16;6287397;20;3675251;-57
2023/02/10 08:07:11;;;;;;;;;98.67;72.67;;;;;-0.18;75.57;101742.78;6316610;20;3674346;-56
2023/02/10 08:09:41;;;;;;;;;99.67;69.33;;;;;-0.06;75.48;101750.00;6288498;20;3667975;-55
2023/02/10 08:12:10;;;;;;;;;97.33;74.67;;;;;0.07;73.63;101754.59;6316302;20;3654499;-58
2023/02/10 08:14:40;;;;;;;;;98.00;71.33;;;;;0.02;76.29;101756.28;6317728;20;3669134;-57
2023/02/10 08:17:10;;;;;;;;;91.00;67.00;;;;;-0.24;77.97;101753.22;6320374;20;2887909;-58
2023/02/10 08:19:37;;;;;;;;;66.00;43.50;;;;;0.29;77.68;101747.88;6316135;20;2868039;-58
2023/02/10 08:22:08;;;;;;;;;90.67;66.33;;;;;0.68;76.42;101745.72;6288362;20;2893175;-57
2023/02/10 08:24:37;;;;;;;;;85.00;65.67;;;;;1.24;74.29;101751.66;6319948;20;3634692;-57
2023/02/10 08:27:07;;;;;;;;;83.67;63.33;;;;;1.17;73.05;101748.91;6319843;20;3655504;-58
2023/02/10 08:29:40;;;;;;;;;81.33;62.67;;;;;1.09;76.42;101752.38;6314726;20;2888996;-59
2023/02/10 08:32:10;;;;;;;;;90.67;66.33;;;;;1.44;75.16;101737.69;6320008;20;3654435;-55
2023/02/10 08:34:39;;;;;;;;;81.33;63.67;;;;;0.97;73.33;101740.75;6285577;20;2868027;-60
2023/02/10 08:37:09;;;;;;;;;116.67;96.00;;;;;1.01;74.32;101746.09;6319755;20;3698230;-60
2023/02/10 08:39:39;;;;;;;;;95.33;75.67;;;;;1.15;73.33;101750.66;6283728;20;3652883;-60
2023/02/10 08:42:08;;;;;;;;;85.00;65.33;;;;;1.14;71.94;101756.84;6281176;20;3647174;-60
2023/02/10 08:44:38;;;;;;;;;86.67;64.33;;;;;0.99;72.21;101746.97;6319041;20;3653609;-61
2023/02/10 08:47:11;;;;;;;;;94.00;68.00;;;;;1.29;71.40;101764.91;6316911;20;3654484;-61
2023/02/10 08:49:41;;;;;;;;;92.00;68.00;;;;;0.79;72.51;101752.94;6317848;20;3654419;-61
2023/02/10 08:52:11;;;;;;;;;86.67;64.33;;;;;1.74;72.19;101758.28;6320857;20;3634618;-61
2023/02/10 08:54:41;;;;;;;;;84.33;64.33;;;;;2.19;69.52;101768.31;6317285;20;3625699;-61
2023/02/10 08:57:11;;;;;;;;;80.00;59.33;;;;;1.34;69.17;101768.47;6318776;20;3647137;-61
2023/02/10 08:59:41;;;;;;;;;77.67;61.33;;;;;1.53;69.45;101759.84;6316325;20;2883810;-61
2023/02/10 09:02:13;;;;;;;;;75.50;59.00;;;;;1.35;68.09;101770.28;6313144;20;2877503;-61
2023/02/10 09:04:43;;;;;;;;;83.50;65.50;;;;;1.64;69.06;101777.59;6285089;20;2870145;-61
2023/02/10 09:07:13;;;;;;;;;81.00;61.00;;;;;1.06;69.55;101775.25;6283930;20;3651787;-60
2023/02/10 09:09:43;;;;;;;;;73.67;57.33;;;;;1.55;67.55;101778.38;6316866;20;3639845;-61
2023/02/10 09:12:14;;;;;;;;;72.33;57.33;;;;;1.43;66.65;101784.47;6312774;20;3622147;-61
2023/02/10 09:14:44;;;;;;;;;76.33;58.00;;;;;1.31;66.77;101789.63;6315067;20;2880566;-61
2023/02/10 09:17:12;;;;;;;;;67.00;51.50;;;;;1.29;67.37;101786.97;6316520;20;2865907;-61
2023/02/10 09:19:42;;;;;;;;;72.00;52.67;;;;;1.54;66.61;101790.75;6285850;20;2883665;-60
2023/02/10 09:22:11;;;;;;;;;58.00;47.00;;;;;1.60;67.98;101787.25;6318170;20;2856777;-60
2023/02/10 09:24:46;;;;;;;;;76.00;57.00;;;;;1.23;68.36;101775.44;6279770;20;2889978;-61
2023/02/10 09:27:16;;;;;;;;;77.33;60.00;;;;;1.74;66.76;101779.47;6314796;20;2883676;-60
2023/02/10 09:29:49;;;;;;;;;75.00;57.00;;;;;2.08;65.06;101785.00;6313231;20;3642085;-61
2023/02/10 09:32:19;;;;;;;;;74.00;56.00;;;;;1.59;66.46;101787.25;6318453;20;2882731;-60
2023/02/10 09:34:48;;;;;;;;;70.00;57.00;;;;;2.00;66.85;101786.69;6312521;20;2871289;-61
2023/02/10 09:37:18;;;;;;;;;81.00;59.67;;;;;1.28;66.69;101779.00;6317129;20;3661763;-61
2023/02/10 09:39:47;;;;;;;;;70.67;53.33;;;;;1.68;65.58;101768.78;6283247;20;2888920;-62
2023/02/10 09:43:00;;;;;;;;;71.33;53.00;;;;;1.41;66.17;101770.31;6316827;20;3633654;-61
2023/02/10 09:45:37;;;;;;;;;71.33;51.00;;;;;1.76;64.38;101782.97;6315490;20;2883815;-61
2023/02/10 09:49:01;;;;;;;;;72.00;54.67;;;;;1.80;64.49;101784.78;6315548;20;2885769;-62
2023/02/10 09:52:11;;;;;;;;;68.00;55.00;;;;;2.36;63.09;101781.66;6313285;20;2875274;-62
2023/02/10 09:54:42;;;;;;;;;81.33;58.67;;;;;2.06;64.04;101784.13;6283958;20;3663792;-62
2023/02/10 09:57:50;;;;;;;;;80.00;59.00;;;;;2.57;63.04;101783.53;6313294;20;3649207;-61
2023/02/10 10:00:31;;;;;;;;;72.00;57.00;;;;;1.75;64.19;101774.16;6310622;20;3630550;-61
2023/02/10 10:03:19;;;;;;;;;92.00;64.67;;;;;2.07;63.86;101772.63;6315794;20;3648180;-62
2023/02/10 10:06:23;;;;;;;;;73.33;56.00;;;;;2.00;63.49;101778.75;6315077;20;3650284;-62
2023/02/10 10:09:08;;;;;;;;;64.00;48.67;;;;;2.65;62.83;101775.63;6312201;20;2871159;-62
2023/02/10 10:11:45;;;;;;;;;63.00;49.00;;;;;2.65;61.37;101775.63;6315038;20;2876486;-62
2023/02/10 10:14:39;;;;;;;;;73.00;52.33;;;;;2.79;61.57;101776.56;6283704;20;3645059;-62
2023/02/10 10:17:33;;;;;;;;;74.67;55.00;;;;;2.98;60.18;101766.03;6313777;20;3644047;-62
2023/02/10 10:20:51;;;;;;;;;67.00;50.33;;;;;2.79;60.58;101767.72;6315558;20;2893058;-61
2023/02/10 10:23:48;;;;;;;;;51.00;41.00;;;;;2.53;60.55;101763.19;6307905;20;2841967;-62
2023/02/10 10:27:13;;;;;;;;;46.50;40.00;;;;;2.28;61.57;101762.16;6279234;20;2498242;-62
2023/02/10 10:29:53;;;;;;;;;66.00;50.50;;;;;2.42;59.83;101759.59;6279467;20;2487802;-62
2023/02/10 10:32:44;;;;;;;;;63.33;47.33;;;;;2.57;59.37;101762.31;6280624;20;3637927;-62
2023/02/10 10:35:33;;;;;;;;;64.00;49.50;;;;;2.76;60.51;101757.97;6314576;20;2864880;-62
2023/02/10 10:38:28;;;;;;;;;66.33;46.67;;;;;2.65;61.31;101765.00;6273448;20;2879453;-57
2023/02/10 10:41:06;;;;;;;;;66.00;51.00;;;;;2.51;60.14;101764.06;6299383;20;2500367;-62
2023/02/10 10:43:47;;;;;;;;;72.67;53.33;;;;;2.56;59.72;101752.59;6285397;20;3640879;-63
2023/02/10 10:46:35;;;;;;;;;64.33;51.67;;;;;2.86;61.02;101749.16;6313239;20;3627407;-63
2023/02/10 10:49:05;;;;;;;;;70.67;53.33;;;;;3.25;59.62;101749.28;6313546;20;3648172;-63
2023/02/10 10:51:36;;;;;;;;;72.33;54.00;;;;;3.23;59.60;101741.31;6316745;20;3649315;-63
2023/02/10 10:54:19;;;;;;;;;67.67;53.67;;;;;3.06;59.96;101748.38;6311567;20;2883614;-62
2023/02/10 10:57:00;;;;;;;;;64.00;52.50;;;;;2.70;59.90;101733.22;6311742;20;2873317;-62
2023/02/10 10:59:45;;;;;;;;;68.00;52.33;;;;;2.75;58.65;101735.00;6282741;20;3632595;-63
2023/02/10 11:02:23;;;;;;;;;76.33;54.67;;;;;3.33;59.12;101722.75;6312122;20;3654474;-63
2023/02/10 11:05:09;;;;;;;;;63.33;49.00;;;;;3.38;58.34;101723.63;6316868;20;3626292;-63
2023/02/10 11:07:41;;;;;;;;;73.00;55.67;;;;;3.09;59.02;101721.81;6312987;20;3643373;-63
2023/02/10 11:10:51;;;;;;;;;75.33;54.33;;;;;3.23;59.02;101725.38;6311029;20;3648769;-62
2023/02/10 11:13:30;;;;;;;;;71.67;54.33;;;;;3.28;59.81;101723.63;6313901;20;3636758;-62
2023/02/10 11:16:18;;;;;;;;;63.00;50.00;;;;;3.25;57.61;101726.28;6312471;20;2888918;-63
2023/02/10 11:18:59;;;;;;;;;69.00;51.00;;;;;3.27;56.93;101716.53;6313147;20;2889952;-62
2023/02/10 11:21:40;;;;;;;;;61.00;48.00;;;;;3.54;57.00;101712.13;6306670;20;2869065;-62
2023/02/10 11:24:35;;;;;;;;;55.00;42.50;;;;;3.52;56.41;101711.25;6281615;20;2881693;-62